createdAt,value
2023-02-11T00:01:21.301Z,53926.94
2023-02-11T00:03:47.653Z,53864.91
2023-02-11T00:06:14.012Z,53875.22
2023-02-11T00:08:40.314Z,53852.50
2023-02-11T00:11:07.546Z,53885.56
2023-02-11T00:13:33.908Z,53914.53
2023-02-11T00:16:00.355Z,53871.09
2023-02-11T00:18:26.658Z,53866.97
2023-02-11T00:20:52.991Z,53893.84
2023-02-11T00:23:19.288Z,53902.13
2023-02-11T00:25:45.588Z,53895.91
2023-02-11T00:28:11.974Z,53912.44
2023-02-11T00:30:38.550Z,53908.31
2023-02-11T00:33:05.073Z,53885.56
2023-02-11T00:35:31.386Z,53897.97
2023-02-11T00:37:57.717Z,53856.63
2023-02-11T00:40:24.030Z,53895.91
2023-02-11T00:42:50.366Z,53881.44
2023-02-11T00:45:16.666Z,53902.13
2023-02-11T00:47:43.006Z,53893.84
2023-02-11T00:50:09.328Z,53858.69
2023-02-11T00:52:35.646Z,53869.03
2023-02-11T00:55:01.944Z,53877.31
2023-02-11T00:57:28.256Z,53885.56
2023-02-11T00:59:54.547Z,53879.38
2023-02-11T01:02:20.805Z,53910.38
2023-02-11T01:04:47.130Z,53900.03
2023-02-11T01:07:13.426Z,53871.09
2023-02-11T01:09:39.720Z,53897.97
2023-02-11T01:12:06.204Z,53871.09
2023-02-11T01:14:32.571Z,53881.44
2023-02-11T01:16:59.075Z,53856.63
2023-02-11T01:19:25.410Z,53871.09
2023-02-11T01:21:51.703Z,53869.03
2023-02-11T01:24:18.009Z,53850.41
2023-02-11T01:26:44.319Z,53858.69
2023-02-11T01:29:10.714Z,53866.97
2023-02-11T01:31:37.173Z,53873.16
2023-02-11T01:34:03.697Z,53838.00
2023-02-11T01:36:30.039Z,53871.09
2023-02-11T01:38:56.370Z,53893.84
2023-02-11T01:41:22.727Z,53864.91
2023-02-11T01:43:49.514Z,53885.56
2023-02-11T01:46:29.394Z,53866.97
2023-02-11T01:48:57.192Z,53866.97
2023-02-11T01:51:24.756Z,53862.81
2023-02-11T01:54:09.762Z,53840.09
2023-02-11T01:56:56.274Z,53848.34
2023-02-11T01:59:24.043Z,53887.63
2023-02-11T02:01:52.530Z,53889.72
2023-02-11T02:04:19.289Z,53850.41
2023-02-11T02:06:48.735Z,53871.09
2023-02-11T02:09:35.086Z,53844.22
2023-02-11T02:12:01.385Z,53883.50
2023-02-11T02:14:28.878Z,53879.38
2023-02-11T02:20:38.296Z,53869.03
2023-02-11T02:23:04.574Z,53875.22
2023-02-11T02:25:37.893Z,53866.97
2023-02-11T02:28:12.546Z,53873.16
2023-02-11T02:30:43.253Z,53877.31
2023-02-11T02:33:45.476Z,53908.31
2023-02-11T02:36:16.995Z,53846.28
2023-02-11T02:39:21.599Z,53856.63
2023-02-11T02:41:47.961Z,53871.09
2023-02-11T02:44:14.285Z,53914.53
2023-02-11T02:46:40.709Z,53893.84
2023-02-11T02:49:09.951Z,53869.03
2023-02-11T02:51:40.775Z,53858.69
2023-02-11T02:54:09.796Z,53873.16
2023-02-11T02:56:38.820Z,53854.56
2023-02-11T02:59:19.250Z,53869.03
2023-02-11T03:01:50.770Z,53897.97
2023-02-11T03:04:19.927Z,53873.16
2023-02-11T03:06:48.596Z,53918.66
2023-02-11T03:09:29.351Z,53897.97
2023-02-11T03:11:55.642Z,53854.56
2023-02-11T03:14:22.119Z,53887.63
2023-02-11T03:16:48.500Z,53881.44
2023-02-11T03:19:14.829Z,53838.00
2023-02-11T03:21:41.625Z,53852.50
2023-02-11T03:24:09.136Z,53885.56
2023-02-11T03:26:35.487Z,53852.50
2023-02-11T03:29:25.138Z,53869.03
2023-02-11T03:32:05.909Z,53852.50
2023-02-11T03:34:47.410Z,53873.16
2023-02-11T03:37:21.852Z,53881.44
2023-02-11T03:39:59.736Z,53891.78
2023-02-11T03:42:26.711Z,53852.50
2023-02-11T03:44:54.050Z,53869.03
2023-02-11T03:47:21.560Z,53885.56
2023-02-11T03:49:48.042Z,53893.84
2023-02-11T03:52:14.439Z,53893.84
2023-02-11T03:54:41.248Z,53897.97
2023-02-11T03:57:07.534Z,53891.78
2023-02-11T03:59:49.208Z,53877.31
2023-02-11T04:02:15.485Z,53887.63
2023-02-11T04:04:41.800Z,53889.72
2023-02-11T04:07:08.974Z,53835.94
2023-02-11T04:09:36.739Z,53869.03
2023-02-11T04:12:03.101Z,53893.84
2023-02-11T04:14:29.406Z,53862.81
2023-02-11T04:16:55.689Z,53879.38
2023-02-11T04:19:21.990Z,53866.97
2023-02-11T04:21:48.325Z,53862.81
2023-02-11T04:24:14.754Z,53871.09
2023-02-11T04:26:41.076Z,53883.50
2023-02-11T04:29:07.432Z,53871.09
2023-02-11T04:31:33.794Z,53881.44
2023-02-11T04:34:00.115Z,53856.63
2023-02-11T04:36:26.445Z,53856.63
2023-02-11T04:38:52.726Z,53887.63
2023-02-11T04:41:19.002Z,53869.03
2023-02-11T04:43:45.331Z,53860.75
2023-02-11T04:46:11.702Z,53846.28
2023-02-11T04:48:38.068Z,53844.22
2023-02-11T04:51:04.434Z,53873.16
2023-02-11T04:53:30.835Z,53850.41
2023-02-11T04:55:57.175Z,53866.97
2023-02-11T04:58:24.260Z,53850.41
2023-02-11T05:00:50.595Z,53844.22
2023-02-11T05:03:16.927Z,53848.34
2023-02-11T05:05:43.374Z,53869.03
2023-02-11T05:08:10.018Z,53833.88
2023-02-11T05:10:36.564Z,53885.56
2023-02-11T05:13:03.184Z,53829.75
2023-02-11T05:15:29.568Z,53862.81
2023-02-11T05:17:56.254Z,53813.19
2023-02-11T05:20:22.626Z,53823.53
2023-02-11T05:22:49.082Z,53823.53
2023-02-11T05:25:15.352Z,53827.69
2023-02-11T05:27:41.647Z,53840.09
2023-02-11T05:30:08.359Z,53835.94
2023-02-11T05:32:34.690Z,53846.28
2023-02-11T05:35:01.049Z,53815.28
2023-02-11T05:37:27.434Z,53809.06
2023-02-11T05:39:53.832Z,53813.19
2023-02-11T05:42:20.132Z,53823.53
2023-02-11T05:44:47.986Z,53831.81
2023-02-11T05:47:15.335Z,53829.75
2023-02-11T05:49:41.651Z,53817.34
2023-02-11T05:52:07.939Z,53782.19
2023-02-11T05:54:34.267Z,53807.00
2023-02-11T05:57:00.582Z,53761.50
2023-02-11T05:59:26.862Z,53790.47
2023-02-11T06:01:53.251Z,53778.06
2023-02-11T06:04:19.649Z,53809.06
2023-02-11T06:06:45.963Z,53809.06
2023-02-11T06:09:12.283Z,53811.13
2023-02-11T06:11:38.618Z,53813.19
2023-02-11T06:14:05.088Z,53804.94
2023-02-11T06:16:31.505Z,53815.28
2023-02-11T06:18:57.880Z,53776.00
2023-02-11T06:21:33.501Z,53780.13
2023-02-11T06:24:06.523Z,53773.91
2023-02-11T06:26:32.838Z,53769.78
2023-02-11T06:29:02.219Z,53765.66
2023-02-11T06:31:28.754Z,53788.41
2023-02-11T06:33:55.194Z,53767.72
2023-02-11T06:36:21.807Z,53784.25
2023-02-11T06:38:48.553Z,53773.91
2023-02-11T06:41:15.840Z,53788.41
2023-02-11T06:43:42.328Z,53782.19
2023-02-11T06:46:08.690Z,53800.81
2023-02-11T06:48:35.366Z,53780.13
2023-02-11T06:51:06.309Z,53790.47
2023-02-11T06:53:35.432Z,53769.78
2023-02-11T06:56:02.495Z,53784.25
2023-02-11T06:58:28.913Z,53769.78
2023-02-11T07:00:55.312Z,53780.13
2023-02-11T07:03:21.759Z,53757.38
2023-02-11T07:05:48.267Z,53761.50
2023-02-11T07:08:15.026Z,53773.91
2023-02-11T07:10:41.435Z,53763.59
2023-02-11T07:13:07.726Z,53794.59
2023-02-11T07:15:34.049Z,53763.59
2023-02-11T07:18:00.557Z,53769.78
2023-02-11T07:20:26.892Z,53753.25
2023-02-11T07:22:53.251Z,53744.97
2023-02-11T07:25:19.544Z,53734.63
2023-02-11T07:27:45.977Z,53765.66
2023-02-11T07:30:12.709Z,53755.31
2023-02-11T07:32:39.004Z,53742.91
2023-02-11T07:35:05.616Z,53778.06
2023-02-11T07:37:33.582Z,53751.19
2023-02-11T07:39:59.985Z,53718.09
2023-02-11T07:42:26.305Z,53749.09
2023-02-11T07:44:52.615Z,53753.25
2023-02-11T07:47:18.925Z,53753.25
2023-02-11T07:49:45.335Z,53726.38
2023-02-11T07:52:11.652Z,53765.66
2023-02-11T07:54:37.960Z,53738.78
2023-02-11T07:57:04.275Z,53732.56
2023-02-11T07:59:30.607Z,53718.09
2023-02-11T08:01:56.996Z,53732.56
2023-02-11T08:04:23.618Z,53753.25
2023-02-11T08:06:52.701Z,53761.50
2023-02-11T08:09:19.136Z,53753.25
2023-02-11T08:11:45.517Z,53757.38
2023-02-11T08:14:11.956Z,53728.44
2023-02-11T08:16:41.267Z,53744.97
2023-02-11T08:19:08.774Z,53732.56
2023-02-11T08:21:35.098Z,53738.78
2023-02-11T08:24:01.690Z,53695.34
2023-02-11T08:26:28.799Z,53757.38
2023-02-11T08:28:55.841Z,53742.91
2023-02-11T08:31:23.787Z,53730.50
2023-02-11T08:33:50.472Z,53736.69
2023-02-11T08:36:17.998Z,53699.50
2023-02-11T08:38:44.452Z,53738.78
2023-02-11T08:41:10.960Z,53722.22
2023-02-11T08:43:37.322Z,53732.56
2023-02-11T08:46:03.828Z,53724.28
2023-02-11T08:48:30.187Z,53724.28
2023-02-11T08:50:56.953Z,53724.28
2023-02-11T08:53:23.467Z,53724.28
2023-02-11T08:55:50.662Z,53711.91
2023-02-11T08:58:19.131Z,53711.91
2023-02-11T09:00:45.706Z,53718.09
2023-02-11T09:03:12.415Z,53701.56
2023-02-11T09:05:42.666Z,53732.56
2023-02-11T09:08:09.327Z,53707.75
2023-02-11T09:10:35.834Z,53728.44
2023-02-11T09:13:02.184Z,53720.16
2023-02-11T09:15:28.513Z,53732.56
2023-02-11T09:17:54.910Z,53720.16
2023-02-11T09:20:22.001Z,53709.81
2023-02-11T09:22:48.347Z,53709.81
2023-02-11T09:25:14.678Z,53740.84
2023-02-11T09:27:41.042Z,53716.03
2023-02-11T09:30:07.620Z,53722.22
2023-02-11T09:32:34.122Z,53716.03
2023-02-11T09:35:00.432Z,53711.91
2023-02-11T09:37:26.778Z,53722.22
2023-02-11T09:39:53.158Z,53713.97
2023-02-11T09:42:19.428Z,53707.75
2023-02-11T09:44:45.736Z,53703.63
2023-02-11T09:47:32.272Z,53734.63
2023-02-11T09:50:12.835Z,53713.97
2023-02-11T09:52:40.433Z,53713.97
2023-02-11T09:55:12.798Z,53720.16
2023-02-11T09:57:39.102Z,53703.63
2023-02-11T10:00:19.353Z,53711.91
2023-02-11T10:03:03.807Z,53720.16
2023-02-11T10:05:48.691Z,53720.16
2023-02-11T10:08:20.422Z,53716.03
2023-02-11T10:10:54.445Z,53697.41
2023-02-11T10:13:26.816Z,53707.75
2023-02-11T10:15:59.600Z,53680.88
2023-02-11T10:18:44.301Z,53732.56
2023-02-11T10:21:16.846Z,53744.97
2023-02-11T10:23:44.729Z,53718.09
2023-02-11T10:26:15.094Z,53716.03
2023-02-11T10:28:42.552Z,53726.38
2023-02-11T10:31:18.085Z,53703.63
2023-02-11T10:33:47.747Z,53697.41
2023-02-11T10:36:14.733Z,53695.34
2023-02-11T10:38:41.092Z,53726.38
2023-02-11T10:41:09.766Z,53738.78
2023-02-11T10:43:36.068Z,53707.75
2023-02-11T10:46:02.934Z,53720.16
2023-02-11T10:48:36.862Z,53740.84
2023-02-11T10:51:09.249Z,53744.97
2023-02-11T10:53:35.699Z,53732.56
2023-02-11T10:56:03.441Z,53716.03
2023-02-11T10:58:56.141Z,53707.75
2023-02-11T11:01:24.704Z,53736.69
2023-02-11T11:03:51.968Z,53747.03
2023-02-11T11:06:28.135Z,53736.69
2023-02-11T11:08:54.427Z,53724.28
2023-02-11T11:11:21.470Z,53726.38
2023-02-11T11:13:54.011Z,53740.84
2023-02-11T11:16:27.916Z,53730.50
2023-02-11T11:19:14.150Z,53732.56
2023-02-11T11:21:47.119Z,53720.16
2023-02-11T11:24:16.606Z,53707.75
2023-02-11T11:26:53.041Z,53718.09
2023-02-11T11:29:22.358Z,53744.97
2023-02-11T11:31:52.655Z,53730.50
2023-02-11T11:34:21.429Z,53753.25
2023-02-11T11:36:47.746Z,53722.22
2023-02-11T11:39:17.080Z,53753.25
2023-02-11T11:41:53.693Z,53740.84
2023-02-11T11:44:33.136Z,53778.06
2023-02-11T11:47:18.608Z,53757.38
2023-02-11T11:50:14.426Z,53740.84
2023-02-11T11:52:46.786Z,53718.09
2023-02-11T11:55:16.060Z,53726.38
2023-02-11T11:57:42.457Z,53753.25
2023-02-11T12:00:19.321Z,53732.56
2023-02-11T12:03:05.888Z,53732.56
2023-02-11T12:05:47.494Z,53747.03
2023-02-11T12:08:19.455Z,53742.91
2023-02-11T12:10:45.704Z,53749.09
2023-02-11T12:13:12.021Z,53726.38
2023-02-11T12:15:44.267Z,53720.16
2023-02-11T12:18:16.701Z,53765.66
2023-02-11T12:20:53.640Z,53738.78
2023-02-11T12:23:39.038Z,53734.63
2023-02-11T12:26:24.506Z,53769.78
2023-02-11T12:29:09.651Z,53734.63
2023-02-11T12:31:37.047Z,53769.78
2023-02-11T12:34:12.530Z,53749.09
2023-02-11T12:36:54.407Z,53749.09
2023-02-11T12:39:26.790Z,53716.03
2023-02-11T12:42:22.194Z,53761.50
2023-02-11T12:44:56.429Z,53718.09
2023-02-11T12:47:25.835Z,53738.78
2023-02-11T12:49:55.276Z,53720.16
2023-02-11T12:52:40.384Z,53720.16
2023-02-11T12:55:17.112Z,53738.78
2023-02-11T12:57:43.405Z,53744.97
2023-02-11T13:00:19.570Z,53744.97
2023-02-11T13:02:45.957Z,53730.50
2023-02-11T13:05:18.491Z,53732.56
2023-02-11T13:07:45.728Z,53732.56
2023-02-11T13:10:41.553Z,53705.69
2023-02-11T13:13:17.768Z,53730.50
2023-02-11T13:15:54.452Z,53724.28
2023-02-11T13:18:32.304Z,53740.84
2023-02-11T13:21:00.931Z,53740.84
2023-02-11T13:23:47.641Z,53751.19
2023-02-11T13:26:19.816Z,53749.09
2023-02-11T13:28:54.177Z,53740.84
2023-02-11T13:31:20.690Z,53742.91
2023-02-11T13:33:49.751Z,53726.38
2023-02-11T13:36:17.283Z,53736.69
2023-02-11T13:38:54.052Z,53720.16
2023-02-11T13:41:24.615Z,53732.56
2023-02-11T13:43:58.095Z,53744.97
2023-02-11T13:46:24.572Z,53757.38
2023-02-11T13:48:52.576Z,53720.16
2023-02-11T13:51:32.575Z,53728.44
2023-02-11T13:53:58.966Z,53730.50
2023-02-11T13:56:31.350Z,53699.50
2023-02-11T13:59:00.784Z,53703.63
2023-02-11T14:02:06.904Z,53722.22
2023-02-11T14:04:52.237Z,53740.84
2023-02-11T14:07:43.035Z,53740.84
2023-02-11T14:10:38.466Z,53713.97
2023-02-11T14:13:05.504Z,53678.81
2023-02-11T14:15:38.518Z,53670.53
2023-02-11T14:18:24.835Z,53647.81
2023-02-11T14:20:51.878Z,53666.41
2023-02-11T14:23:22.252Z,53649.88
2023-02-11T14:25:52.945Z,53676.75
2023-02-11T14:28:22.151Z,53699.50
2023-02-11T14:30:57.084Z,53699.50
2023-02-11T14:33:29.379Z,53687.09
2023-02-11T14:36:05.617Z,53718.09
2023-02-11T14:38:55.223Z,53691.22
2023-02-11T14:41:21.655Z,53705.69
2023-02-11T14:43:49.838Z,53726.38
2023-02-11T14:46:20.796Z,53744.97
2023-02-11T14:48:47.768Z,53720.16
2023-02-11T14:51:25.754Z,53736.69
2023-02-11T14:53:53.226Z,53730.50
2023-02-11T14:56:27.014Z,53755.31
2023-02-11T14:58:54.134Z,53755.31
2023-02-11T15:01:35.176Z,53749.09
2023-02-11T15:04:02.884Z,53738.78
2023-02-11T15:06:33.178Z,53769.78
2023-02-11T15:09:00.944Z,53757.38
2023-02-11T15:11:28.165Z,53740.84
2023-02-11T15:13:55.705Z,53757.38
2023-02-11T15:16:25.821Z,53755.31
2023-02-11T15:18:53.555Z,53794.59
2023-02-11T15:21:26.939Z,53753.25
2023-02-11T15:24:12.045Z,53788.41
2023-02-11T15:26:38.352Z,53790.47
2023-02-11T15:29:14.514Z,53782.19
2023-02-11T15:31:40.873Z,53798.72
2023-02-11T15:34:07.988Z,53782.19
2023-02-11T15:36:36.300Z,53794.59
2023-02-11T15:39:22.925Z,53790.47
2023-02-11T15:41:49.305Z,53784.25
2023-02-11T15:44:29.020Z,53773.91
2023-02-11T15:46:55.372Z,53742.91
2023-02-11T15:49:23.166Z,53763.59
2023-02-11T15:51:50.470Z,53798.72
2023-02-11T15:54:18.444Z,53802.88
2023-02-11T15:56:45.771Z,53784.25
2023-02-11T15:59:19.448Z,53765.66
2023-02-11T16:01:45.967Z,53769.78
2023-02-11T16:04:16.375Z,53788.41
2023-02-11T16:06:42.831Z,53800.81
2023-02-11T16:09:10.068Z,53769.78
2023-02-11T16:11:38.311Z,53776.00
2023-02-11T16:14:20.017Z,53769.78
2023-02-11T16:16:46.612Z,53780.13
2023-02-11T16:19:13.093Z,53821.47
2023-02-11T16:21:42.359Z,53802.88
2023-02-11T16:24:14.924Z,53788.41
2023-02-11T16:26:43.304Z,53788.41
2023-02-11T16:29:13.851Z,53817.34
2023-02-11T16:31:41.166Z,53807.00
2023-02-11T16:34:14.717Z,53794.59
2023-02-11T16:36:41.075Z,53790.47
2023-02-11T16:39:07.553Z,53804.94
2023-02-11T16:41:33.887Z,53782.19
2023-02-11T16:44:00.348Z,53784.25
2023-02-11T16:46:27.426Z,53800.81
2023-02-11T16:48:54.706Z,53788.41
2023-02-11T16:51:21.006Z,53788.41
2023-02-11T16:53:47.310Z,53802.88
2023-02-11T16:56:17.416Z,53778.06
2023-02-11T16:58:44.267Z,53784.25
2023-02-11T17:01:13.551Z,53778.06
2023-02-11T17:03:40.567Z,53798.72
2023-02-11T17:06:08.040Z,53782.19
2023-02-11T17:08:34.386Z,53796.66
2023-02-11T17:11:00.735Z,53769.78
2023-02-11T17:13:27.079Z,53794.59
2023-02-11T17:15:53.748Z,53792.53
2023-02-11T17:18:20.322Z,53833.88
2023-02-11T17:20:46.586Z,53798.72
2023-02-11T17:23:13.047Z,53796.66
2023-02-11T17:25:40.480Z,53798.72
2023-02-11T17:28:07.367Z,53782.19
2023-02-11T17:30:33.818Z,53798.72
2023-02-11T17:33:00.182Z,53819.41
2023-02-11T17:35:26.572Z,53792.53
2023-02-11T17:37:53.778Z,53800.81
2023-02-11T17:40:20.195Z,53827.69
2023-02-11T17:42:46.531Z,53811.13
2023-02-11T17:45:13.716Z,53850.41
2023-02-11T17:47:40.364Z,53825.59
2023-02-11T17:50:07.035Z,53796.66
2023-02-11T17:52:33.440Z,53807.00
2023-02-11T17:54:59.793Z,53827.69
2023-02-11T17:57:26.178Z,53794.59
2023-02-11T17:59:52.598Z,53813.19
2023-02-11T18:02:18.968Z,53850.41
2023-02-11T18:04:45.338Z,53802.88
2023-02-11T18:07:11.717Z,53800.81
2023-02-11T18:09:38.965Z,53792.53
2023-02-11T18:12:05.619Z,53809.06
2023-02-11T18:14:31.895Z,53794.59
2023-02-11T18:16:58.251Z,53800.81
2023-02-11T18:19:24.630Z,53794.59
2023-02-11T18:21:50.967Z,53796.66
2023-02-11T18:24:17.721Z,53788.41
2023-02-11T18:26:43.993Z,53776.00
2023-02-11T18:29:10.312Z,53823.53
2023-02-11T18:31:36.767Z,53815.28
2023-02-11T18:34:03.982Z,53798.72
2023-02-11T18:36:30.457Z,53802.88
2023-02-11T18:38:58.056Z,53807.00
2023-02-11T18:41:24.398Z,53794.59
2023-02-11T18:43:50.893Z,53819.41
2023-02-11T18:46:17.367Z,53790.47
2023-02-11T18:48:54.407Z,53788.41
2023-02-11T18:51:22.324Z,53823.53
2023-02-11T18:53:48.681Z,53819.41
2023-02-11T18:56:16.331Z,53829.75
2023-02-11T18:58:42.732Z,53835.94
2023-02-11T19:01:10.191Z,53838.00
2023-02-11T19:03:36.466Z,53838.00
2023-02-11T19:06:02.816Z,53802.88
2023-02-11T19:08:29.255Z,53815.28
2023-02-11T19:10:55.561Z,53794.59
2023-02-11T19:13:21.985Z,53798.72
2023-02-11T19:15:48.267Z,53815.28
2023-02-11T19:18:14.813Z,53840.09
2023-02-11T19:20:44.174Z,53807.00
2023-02-11T19:23:10.812Z,53798.72
2023-02-11T19:25:37.242Z,53831.81
2023-02-11T19:28:03.610Z,53823.53
2023-02-11T19:30:29.927Z,53821.47
2023-02-11T19:32:57.538Z,53804.94
2023-02-11T19:35:24.483Z,53809.06
2023-02-11T19:37:50.925Z,53800.81
2023-02-11T19:40:17.531Z,53823.53
2023-02-11T19:42:43.855Z,53798.72
2023-02-11T19:45:10.224Z,53807.00
2023-02-11T19:47:36.604Z,53819.41
2023-02-11T19:50:03.858Z,53815.28
2023-02-11T19:52:30.280Z,53798.72
2023-02-11T19:54:56.587Z,53792.53
2023-02-11T19:57:22.963Z,53827.69
2023-02-11T19:59:49.448Z,53817.34
2023-02-11T20:02:15.818Z,53794.59
2023-02-11T20:04:42.246Z,53792.53
2023-02-11T20:07:08.560Z,53819.41
2023-02-11T20:09:34.910Z,53831.81
2023-02-11T20:12:01.279Z,53788.41
2023-02-11T20:14:28.148Z,53827.69
2023-02-11T20:16:54.594Z,53813.19
2023-02-11T20:19:22.120Z,53831.81
2023-02-11T20:21:49.093Z,53825.59
2023-02-11T20:24:16.056Z,53844.22
2023-02-11T20:26:42.492Z,53860.75
2023-02-11T20:29:08.905Z,53833.88
2023-02-11T20:31:35.689Z,53796.66
2023-02-11T20:34:02.240Z,53800.81
2023-02-11T20:36:31.829Z,53823.53
2023-02-11T20:38:58.764Z,53815.28
2023-02-11T20:41:28.418Z,53804.94
2023-02-11T20:43:55.327Z,53811.13
2023-02-11T20:46:24.901Z,53796.66
2023-02-11T20:48:51.599Z,53811.13
2023-02-11T20:51:19.452Z,53881.44
2023-02-11T20:53:50.302Z,53813.19
2023-02-11T20:56:20.851Z,53815.28
2023-02-11T20:58:47.291Z,53792.53
2023-02-11T21:01:16.586Z,53815.28
2023-02-11T21:03:50.721Z,53813.19
2023-02-11T21:06:17.331Z,53804.94
2023-02-11T21:08:46.201Z,53804.94
2023-02-11T21:11:12.841Z,53802.88
2023-02-11T21:13:42.945Z,53790.47
2023-02-11T21:16:10.223Z,53838.00
2023-02-11T21:18:46.480Z,53831.81
2023-02-11T21:21:20.215Z,53788.41
2023-02-11T21:23:46.622Z,53786.31
2023-02-11T21:26:15.369Z,53831.81
2023-02-11T21:28:55.350Z,53815.28
2023-02-11T21:31:33.149Z,53796.66
2023-02-11T21:34:01.328Z,53807.00
2023-02-11T21:36:39.641Z,53800.81
2023-02-11T21:39:09.103Z,53813.19
2023-02-11T21:41:42.442Z,53813.19
2023-02-11T21:44:15.240Z,53813.19
2023-02-11T21:46:43.929Z,53792.53
2023-02-11T21:49:10.292Z,53776.00
2023-02-11T21:51:36.670Z,53792.53
2023-02-11T21:54:03.201Z,53821.47
2023-02-11T21:56:30.280Z,53811.13
2023-02-11T21:58:57.144Z,53796.66
2023-02-11T22:01:27.594Z,53813.19
2023-02-11T22:03:53.933Z,53821.47
2023-02-11T22:06:26.065Z,53792.53
2023-02-11T22:08:52.789Z,53815.28
2023-02-11T22:11:19.214Z,53784.25
2023-02-11T22:13:45.627Z,53819.41
2023-02-11T22:16:13.509Z,53838.00
2023-02-11T22:18:40.219Z,53800.81
2023-02-11T22:21:10.487Z,53800.81
2023-02-11T22:23:36.935Z,53815.28
2023-02-11T22:26:04.276Z,53798.72
2023-02-11T22:28:30.669Z,53782.19
2023-02-11T22:30:57.284Z,53792.53
2023-02-11T22:33:23.849Z,53802.88
2023-02-11T22:35:51.764Z,53788.41
2023-02-11T22:38:18.075Z,53833.88
2023-02-11T22:40:44.396Z,53819.41
2023-02-11T22:43:10.754Z,53802.88
2023-02-11T22:45:37.118Z,53776.00
2023-02-11T22:48:03.600Z,53817.34
2023-02-11T22:50:29.995Z,53780.13
2023-02-11T22:52:56.265Z,53794.59
2023-02-11T22:55:22.558Z,53800.81
2023-02-11T22:57:48.844Z,53798.72
2023-02-11T23:00:15.551Z,53823.53
2023-02-11T23:02:41.937Z,53807.00
2023-02-11T23:05:08.355Z,53798.72
2023-02-11T23:07:34.779Z,53782.19
2023-02-11T23:10:01.126Z,53823.53
2023-02-11T23:12:27.464Z,53802.88
2023-02-11T23:14:53.770Z,53782.19
2023-02-11T23:17:20.135Z,53782.19
2023-02-11T23:19:46.482Z,53784.25
2023-02-11T23:22:12.795Z,53773.91
2023-02-11T23:24:39.161Z,53807.00
2023-02-11T23:27:05.529Z,53807.00
2023-02-11T23:29:31.845Z,53794.59
2023-02-11T23:31:59.009Z,53794.59
2023-02-11T23:34:25.567Z,53794.59
2023-02-11T23:36:52.296Z,53773.91
2023-02-11T23:39:18.659Z,53782.19
2023-02-11T23:41:45.044Z,53776.00
2023-02-11T23:44:11.325Z,53802.88
2023-02-11T23:46:37.676Z,53749.09
2023-02-11T23:49:04.160Z,53776.00
2023-02-11T23:51:30.443Z,53792.53
2023-02-11T23:53:56.773Z,53796.66
2023-02-11T23:56:24.314Z,53784.25
2023-02-11T23:58:51.200Z,53778.06
